Waterloo, NY

12:03 PM EST on March 02, 2015 (GMT -0500)
E Elisha St | Change Station
CLOSE
Current Station
Personal Weather Station
Location: Waterloo, NY
Elevation: 463 ft
Nearby Weather Stations

Elev 463 ft 42.91 °N, 76.86 °W | Updated 13 seconds ago

Overcast
Overcast
27.4 °F
Feels Like 22 °F
N
5.0
Wind Variable Wind from WSW
Gusts 5.0 mph

Today
High -- | Low -- °F
--% Chance of Precip.
Yesterday
High -- | Low -- °F
Precip. -- in
6:42 AM 5:57 PM
Waxing Gibbous, 92% visible
Pressure 30.26 in
Visibility 9.0 miles
Clouds Mostly Cloudy 3500 ft
Overcast 4700 ft
Windchill 22 °F
Dew Point 16 °F
Humidity 63%
Rainfall 0.00 in
Snow Depth Not available.
UV 2 out of 12
Pollen .40 out of 12
Air Quality Not available.
Flu Activity Not available.
METAR KPEO 021653Z AUTO 27012G23KT 9SM BKN035 OVC047 M03/M11 A3021 RMK AO2 PK WND 29027/1627 UPB29E42 SLP245 P0000 T10331111

More Conditions Fewer Conditions

Pressure 30.26 in
Visibility 9.0 miles
Clouds Mostly Cloudy 3500 ft
Overcast 4700 ft
Windchill 22 °F
Dew Point 16 °F
Humidity 63%
Rainfall 0.00 in
Snow Depth Not available.
UV 2 out of 12
Pollen .40 out of 12
Air Quality Not available.
Flu Activity Not available.
METAR KPEO 021653Z AUTO 27012G23KT 9SM BKN035 OVC047 M03/M11 A3021 RMK AO2 PK WND 29027/1627 UPB29E42 SLP245 P0000 T10331111

More Conditions Fewer Conditions

10-Day Weather Forecast

Almanac

Astronomy

Mar. 02, 2015 Rise Set
Actual Time
Civil Twilight
Nautical Twilight
Astronomical Twilight
Moon
Length of Visible Light
Length of Day
Tomorrow will be .
, % of the Moon is Illuminated

Today's Extremes

State Highs State Lows

Community

WunderPhotos

Upload Photos

1,801,852 photos uploaded!

WunderBlogs® & News

Nearby

Air Quality

  Air Quality AQ Index Pollutant
Not available.

Snow Depth

Station Depth Elevation

Earthquake Activity

City Distance Mag. Time & Date
Minimum magnitude displayed is 2.5.

Coastal Water Temperatures

Place Temperature

Nearby Weather Stations